Wetterstation Vordersexau
Wetterdaten: Woche 18.01.16 - 24.01.16 (KW3)
Datum Zeit Temp. A. Feuchte A. Luftdruck Regen Wind Richtung Taupunkt Windchill Windben
18.01.2016 00:00 -8,5 C 88 % 1022,1 hPa 0,0 l/m 0,0 km/h O-SO -10,1 C -8,5 C 0,0 km/h
18.01.2016 01:00 -8,6 C 88 % 1021,0 hPa 0,0 l/m 0,0 km/h SO -10,2 C -8,6 C 0,0 km/h
18.01.2016 02:00 -8,4 C 89 % 1020,6 hPa 0,0 l/m 0,0 km/h SO -9,9 C -8,4 C 0,0 km/h
18.01.2016 03:00 -10,1 C 88 % 1020,2 hPa 0,0 l/m 0,0 km/h SO -11,7 C -10,1 C 0,0 km/h
18.01.2016 04:00 -11,6 C 88 % 1019,3 hPa 0,0 l/m 0,0 km/h O-SO -13,2 C -11,6 C 0,0 km/h
18.01.2016 05:00 -9,7 C 89 % 1018,7 hPa 0,0 l/m 0,0 km/h SO -11,2 C -9,7 C 0,0 km/h
18.01.2016 06:00 -9,6 C 89 % 1018,3 hPa 0,0 l/m 0,0 km/h O-NO -11,1 C -9,6 C 0,0 km/h
18.01.2016 07:00 -9,9 C 88 % 1018,1 hPa 0,0 l/m 0,0 km/h SO -11,5 C -9,9 C 0,0 km/h
18.01.2016 08:00 -10,1 C 88 % 1017,4 hPa 0,0 l/m 0,0 km/h W -11,7 C -10,1 C 0,0 km/h
18.01.2016 09:00 -4,5 C 89 % 1017,1 hPa 0,0 l/m 0,0 km/h W -6,0 C -4,5 C 0,0 km/h
18.01.2016 10:00 0,4 C 83 % 1016,8 hPa 0,0 l/m 0,0 km/h W -2,1 C 0,4 C 0,0 km/h
18.01.2016 11:00 -0,8 C 77 % 1016,2 hPa 0,0 l/m 0,0 km/h W -4,3 C -0,8 C 0,0 km/h
18.01.2016 12:00 -1,4 C 81 % 1015,6 hPa 0,0 l/m 0,0 km/h NW -4,2 C -1,4 C 0,0 km/h
18.01.2016 13:00 -1,1 C 79 % 1014,6 hPa 0,0 l/m 0,0 km/h NW -4,3 C -1,1 C 0,0 km/h
18.01.2016 14:00 -1,6 C 78 % 1014,1 hPa 0,0 l/m 0,0 km/h NW -4,9 C -1,6 C 0,0 km/h
18.01.2016 15:00 -1,6 C 76 % 1013,9 hPa 0,0 l/m 0,0 km/h NW -5,3 C -1,6 C 0,0 km/h
18.01.2016 16:00 -4,9 C 80 % 1012,9 hPa 0,0 l/m 0,0 km/h NW -7,8 C -4,9 C 0,0 km/h
18.01.2016 17:00 -8,1 C 83 % 1013,1 hPa 0,0 l/m 0,0 km/h NW -10,5 C -8,1 C 0,0 km/h
18.01.2016 18:00 -8,1 C 85 % 1013,1 hPa 0,0 l/m 0,0 km/h NW -10,2 C -8,1 C 0,0 km/h
18.01.2016 19:00 -8,5 C 86 % 1012,6 hPa 0,0 l/m 0,0 km/h NW -10,4 C -8,5 C 0,0 km/h
18.01.2016 20:00 -8,4 C 87 % 1012,6 hPa 0,0 l/m 0,0 km/h NW -10,2 C -8,4 C 0,0 km/h
18.01.2016 21:00 -6,6 C 87 % 1012,5 hPa 0,0 l/m 0,0 km/h SO -8,4 C -6,6 C 0,0 km/h
18.01.2016 22:00 -6,2 C 88 % 1012,8 hPa 0,0 l/m 0,0 km/h SO -7,9 C -6,2 C 0,0 km/h
18.01.2016 23:00 -6,1 C 88 % 1012,6 hPa 0,0 l/m 0,0 km/h SO -7,8 C -6,1 C 0,0 km/h
19.01.2016 00:00 -5,5 C 88 % 1012,2 hPa 0,0 l/m 0,0 km/h O-SO -7,2 C -5,5 C 0,0 km/h
19.01.2016 01:00 -4,8 C 88 % 1011,7 hPa 0,0 l/m 0,0 km/h O -6,5 C -4,8 C 0,0 km/h
19.01.2016 02:00 -4,6 C 87 % 1011,6 hPa 0,0 l/m 0,0 km/h SO -6,4 C -4,6 C 0,0 km/h
19.01.2016 03:00 -4,1 C 87 % 1011,8 hPa 0,0 l/m 0,0 km/h SO -5,9 C -4,1 C 0,0 km/h
19.01.2016 04:00 -3,9 C 87 % 1011,7 hPa 0,0 l/m 0,0 km/h SO -5,7 C -3,9 C 0,0 km/h
19.01.2016 05:00 -3,7 C 88 % 1011,9 hPa 0,0 l/m 0,0 km/h SO -5,4 C -3,7 C 0,0 km/h
19.01.2016 06:00 -3,6 C 88 % 1011,7 hPa 0,0 l/m 0,0 km/h SO -5,3 C -3,6 C 0,0 km/h
19.01.2016 07:00 -3,6 C 88 % 1012,0 hPa 0,0 l/m 0,0 km/h SO -5,3 C -3,6 C 0,0 km/h
19.01.2016 08:00 -3,2 C 88 % 1012,3 hPa 0,0 l/m 0,0 km/h O-SO -4,9 C -3,2 C 0,0 km/h
19.01.2016 09:00 -2,1 C 87 % 1012,8 hPa 0,0 l/m 0,0 km/h O-NO -4,0 C -2,1 C 0,0 km/h
19.01.2016 10:00 -1,1 C 86 % 1012,8 hPa 0,0 l/m 0,0 km/h N -3,1 C -1,1 C 0,0 km/h
19.01.2016 11:00 0,5 C 83 % 1013,2 hPa 0,0 l/m 0,0 km/h N -2,0 C 0,5 C 0,0 km/h
19.01.2016 12:00 1,3 C 78 % 1012,9 hPa 0,0 l/m 0,0 km/h N -2,1 C 1,3 C 0,0 km/h
19.01.2016 13:00 1,3 C 77 % 1012,6 hPa 0,0 l/m 0,0 km/h N -2,3 C 1,3 C 0,0 km/h
19.01.2016 14:00 0,9 C 76 % 1012,3 hPa 0,0 l/m 0,0 km/h N -2,8 C 0,9 C 0,0 km/h
19.01.2016 15:00 -0,2 C 79 % 1012,7 hPa 0,0 l/m 0,0 km/h N -3,4 C -0,2 C 0,0 km/h
19.01.2016 16:00 -0,9 C 82 % 1012,7 hPa 0,0 l/m 0,0 km/h N -3,6 C -0,9 C 0,0 km/h
19.01.2016 17:00 -1,2 C 83 % 1013,1 hPa 0,0 l/m 0,0 km/h N -3,7 C -1,2 C 0,0 km/h
19.01.2016 18:00 -1,3 C 84 % 1013,3 hPa 0,0 l/m 0,0 km/h N -3,6 C -1,3 C 0,0 km/h
19.01.2016 19:00 -1,3 C 85 % 1013,3 hPa 0,0 l/m 0,0 km/h N -3,5 C -1,3 C 0,0 km/h
19.01.2016 20:00 -1,3 C 85 % 1013,4 hPa 0,0 l/m 0,0 km/h N-NW -3,5 C -1,3 C 0,0 km/h
19.01.2016 21:00 -1,4 C 87 % 1013,9 hPa 0,0 l/m 0,0 km/h N-NW -3,3 C -1,4 C 0,0 km/h
19.01.2016 22:00 -1,6 C 87 % 1013,8 hPa 0,0 l/m 0,0 km/h N-NW -3,5 C -1,6 C 0,0 km/h
19.01.2016 23:00 -1,6 C 87 % 1013,9 hPa 0,0 l/m 0,0 km/h N-NW -3,5 C -1,6 C 0,0 km/h
20.01.2016 00:00 -1,9 C 88 % 1014,0 hPa 0,0 l/m 0,0 km/h N-NW -3,6 C -1,9 C 0,0 km/h
20.01.2016 01:00 -2,1 C 88 % 1014,2 hPa 0,0 l/m 0,0 km/h N-NW -3,8 C -2,1 C 0,0 km/h
20.01.2016 02:00 -2,1 C 88 % 1014,5 hPa 0,0 l/m 0,0 km/h N-NW -3,8 C -2,1 C 0,0 km/h
20.01.2016 03:00 -2,2 C 88 % 1014,9 hPa 0,0 l/m 0,0 km/h N-NW -3,9 C -2,2 C 0,0 km/h
20.01.2016 04:00 -2,4 C 89 % 1014,8 hPa 0,0 l/m 0,0 km/h N-NW -4,0 C -2,4 C 0,0 km/h
20.01.2016 05:00 -2,4 C 89 % 1014,8 hPa 0,0 l/m 0,0 km/h N-NW -4,0 C -2,4 C 0,0 km/h
20.01.2016 06:00 -2,4 C 89 % 1015,2 hPa 0,0 l/m 0,0 km/h N -4,0 C -2,4 C 0,0 km/h
20.01.2016 07:00 -2,8 C 89 % 1015,4 hPa 0,0 l/m 0,0 km/h W-NW -4,4 C -2,8 C 0,0 km/h
20.01.2016 08:00 -3,3 C 89 % 1016,2 hPa 0,0 l/m 0,0 km/h W-NW -4,8 C -3,3 C 0,0 km/h
20.01.2016 09:00 -3,1 C 89 % 1017,0 hPa 0,0 l/m 0,0 km/h N -4,6 C -3,1 C 0,0 km/h
20.01.2016 10:00 -2,2 C 89 % 1017,3 hPa 0,0 l/m 0,0 km/h N -3,8 C -2,2 C 0,0 km/h
20.01.2016 11:00 -0,9 C 87 % 1017,2 hPa 0,0 l/m 0,0 km/h N -2,8 C -0,9 C 0,0 km/h
20.01.2016 12:00 -0,5 C 85 % 1017,4 hPa 0,0 l/m 0,0 km/h N -2,7 C -0,5 C 0,0 km/h
20.01.2016 13:00 -1,1 C 85 % 1017,2 hPa 0,0 l/m 0,0 km/h N -3,3 C -1,1 C 0,0 km/h
20.01.2016 14:00 -1,1 C 86 % 1017,2 hPa 0,0 l/m 0,0 km/h N -3,1 C -1,1 C 0,0 km/h
20.01.2016 15:00 -1,4 C 86 % 1016,7 hPa 0,0 l/m 0,0 km/h N -3,4 C -1,4 C 0,0 km/h
20.01.2016 16:00 -2,6 C 87 % 1017,3 hPa 0,0 l/m 0,0 km/h N -4,5 C -2,6 C 0,0 km/h
20.01.2016 17:00 -3,2 C 88 % 1017,9 hPa 0,0 l/m 0,0 km/h N -4,9 C -3,2 C 0,0 km/h
20.01.2016 18:00 -3,6 C 89 % 1018,1 hPa 0,0 l/m 0,0 km/h N -5,1 C -3,6 C 0,0 km/h
20.01.2016 19:00 -3,6 C 89 % 1018,4 hPa 0,0 l/m 0,0 km/h O -5,1 C -3,6 C 0,0 km/h
20.01.2016 20:00 -3,7 C 89 % 1018,9 hPa 0,0 l/m 0,0 km/h SO -5,2 C -3,7 C 0,0 km/h
20.01.2016 21:00 -4,5 C 89 % 1019,2 hPa 0,0 l/m 0,0 km/h SO -6,0 C -4,5 C 0,0 km/h
20.01.2016 22:00 -6,2 C 89 % 1019,4 hPa 0,0 l/m 0,0 km/h SO -7,7 C -6,2 C 0,0 km/h
20.01.2016 23:00 -5,6 C 89 % 1020,0 hPa 0,0 l/m 0,0 km/h SO -7,1 C -5,6 C 0,0 km/h
21.01.2016 00:00 -6,2 C 89 % 1020,4 hPa 0,0 l/m 0,0 km/h SO -7,7 C -6,2 C 0,0 km/h
21.01.2016 01:00 -6,4 C 89 % 1020,6 hPa 0,0 l/m 0,0 km/h SO -7,9 C -6,4 C 0,0 km/h
21.01.2016 02:00 -8,7 C 89 % 1021,0 hPa 0,0 l/m 0,0 km/h SO -10,2 C -8,7 C 0,0 km/h
21.01.2016 03:00 -9,8 C 89 % 1021,1 hPa 0,0 l/m 0,0 km/h SO -11,3 C -9,8 C 0,0 km/h
21.01.2016 04:00 -9,1 C 89 % 1021,2 hPa 0,0 l/m 0,0 km/h SO -10,6 C -9,1 C 0,0 km/h
21.01.2016 05:00 -9,9 C 89 % 1021,7 hPa 0,0 l/m 0,0 km/h SO -11,4 C -9,9 C 0,0 km/h
21.01.2016 06:00 -10,8 C 89 % 1021,7 hPa 0,0 l/m 0,0 km/h SO -12,2 C -10,8 C 0,0 km/h
21.01.2016 07:00 -11,4 C 89 % 1022,1 hPa 0,0 l/m 0,0 km/h SO -12,8 C -11,4 C 0,0 km/h
21.01.2016 08:00 -10,6 C 89 % 1022,6 hPa 0,0 l/m 0,0 km/h SO -12,1 C -10,6 C 0,0 km/h
21.01.2016 09:00 -6,4 C 89 % 1023,3 hPa 0,0 l/m 0,0 km/h SO -7,9 C -6,4 C 0,0 km/h
21.01.2016 10:00 -3,8 C 89 % 1023,3 hPa 0,0 l/m 0,0 km/h SO -5,3 C -3,8 C 0,0 km/h
21.01.2016 11:00 3,9 C 79 % 1023,3 hPa 0,0 l/m 0,0 km/h S-SO 0,6 C 3,9 C 0,0 km/h
21.01.2016 12:00 3,5 C 70 % 1023,3 hPa 0,0 l/m 0,0 km/h NW -1,4 C 3,5 C 0,0 km/h
21.01.2016 13:00 -0,4 C 76 % 1023,0 hPa 0,4 l/m 0,0 km/h NW -4,1 C -0,4 C 0,0 km/h
21.01.2016 14:00 -1,4 C 81 % 1022,8 hPa 0,0 l/m 0,0 km/h S-SW -4,2 C -1,4 C 0,0 km/h
21.01.2016 15:00 -2,1 C 83 % 1023,3 hPa 0,0 l/m 0,0 km/h S-SW -4,6 C -2,1 C 0,0 km/h
21.01.2016 16:00 -2,7 C 86 % 1023,2 hPa 0,0 l/m 0,0 km/h S -4,7 C -2,7 C 0,0 km/h
21.01.2016 17:00 -3,4 C 87 % 1023,8 hPa 0,0 l/m 0,0 km/h NO -5,2 C -3,4 C 0,0 km/h
21.01.2016 18:00 -3,6 C 88 % 1024,0 hPa 0,0 l/m 0,0 km/h SO -5,3 C -3,6 C 0,0 km/h
21.01.2016 19:00 -3,8 C 88 % 1024,6 hPa 0,0 l/m 0,0 km/h NO -5,5 C -3,8 C 0,0 km/h
21.01.2016 20:00 -4,1 C 89 % 1024,8 hPa 0,0 l/m 0,0 km/h NO -5,6 C -4,1 C 0,0 km/h
21.01.2016 21:00 -4,5 C 89 % 1025,5 hPa 0,0 l/m 0,0 km/h NO -6,0 C -4,5 C 0,0 km/h
21.01.2016 22:00 -4,7 C 89 % 1025,2 hPa 0,0 l/m 0,0 km/h NO -6,2 C -4,7 C 0,0 km/h
21.01.2016 23:00 -4,8 C 89 % 1025,8 hPa 0,0 l/m 0,0 km/h NO -6,3 C -4,8 C 0,0 km/h
22.01.2016 00:00 -4,9 C 89 % 1025,5 hPa 0,0 l/m 0,0 km/h NO -6,4 C -4,9 C 0,0 km/h
22.01.2016 01:00 -4,8 C 89 % 1025,8 hPa 0,0 l/m 0,0 km/h SO -6,3 C -4,8 C 0,0 km/h
22.01.2016 02:00 -6,6 C 89 % 1025,7 hPa 0,0 l/m 0,0 km/h SO -8,1 C -6,6 C 0,0 km/h
22.01.2016 03:00 -6,7 C 89 % 1025,9 hPa 0,0 l/m 0,0 km/h SO -8,2 C -6,7 C 0,0 km/h
22.01.2016 04:00 -6,6 C 89 % 1026,0 hPa 0,0 l/m 0,0 km/h SO -8,1 C -6,6 C 0,0 km/h
22.01.2016 05:00 -7,4 C 89 % 1026,2 hPa 0,0 l/m 0,0 km/h SO -8,9 C -7,4 C 0,0 km/h
22.01.2016 06:00 -8,9 C 89 % 1026,1 hPa 0,0 l/m 0,0 km/h O-SO -10,4 C -8,9 C 0,0 km/h
22.01.2016 07:00 -8,7 C 89 % 1026,3 hPa 0,0 l/m 0,0 km/h O-SO -10,2 C -8,7 C 0,0 km/h
22.01.2016 08:00 -9,5 C 89 % 1026,7 hPa 0,0 l/m 0,0 km/h O-NO -11,0 C -9,5 C 0,0 km/h
22.01.2016 09:00 -5,0 C 89 % 1027,1 hPa 0,0 l/m 0,0 km/h O-NO -6,5 C -5,0 C 0,0 km/h
22.01.2016 10:00 0,3 C 84 % 1026,9 hPa 0,0 l/m 0,0 km/h O-NO -2,1 C 0,3 C 0,0 km/h
22.01.2016 11:00 3,5 C 75 % 1025,9 hPa 0,0 l/m 0,0 km/h O-NO -0,5 C 3,5 C 0,0 km/h
22.01.2016 12:00 5,2 C 70 % 1025,4 hPa 0,0 l/m 0,0 km/h W-NW 0,2 C 5,2 C 0,0 km/h
22.01.2016 13:00 4,6 C 64 % 1025,2 hPa 0,0 l/m 0,0 km/h SO -1,6 C 4,6 C 0,0 km/h
22.01.2016 14:00 6,9 C 60 % 1024,9 hPa 0,4 l/m 0,0 km/h SO -0,3 C 6,9 C 0,0 km/h
22.01.2016 15:00 5,0 C 59 % 1024,7 hPa 0,8 l/m 0,0 km/h SO -2,3 C 5,0 C 0,0 km/h
22.01.2016 16:00 -0,7 C 72 % 1024,5 hPa 0,0 l/m 0,0 km/h O-SO -5,1 C -0,7 C 0,0 km/h
22.01.2016 17:00 -3,3 C 79 % 1024,8 hPa 0,0 l/m 0,0 km/h O-SO -6,4 C -3,3 C 0,0 km/h
22.01.2016 18:00 -3,8 C 83 % 1024,9 hPa 0,0 l/m 0,0 km/h O-SO -6,3 C -3,8 C 0,0 km/h
22.01.2016 19:00 -3,3 C 85 % 1025,2 hPa 0,0 l/m 0,0 km/h O-SO -5,5 C -3,3 C 0,0 km/h
22.01.2016 20:00 -3,1 C 87 % 1024,5 hPa 0,0 l/m 0,0 km/h O-SO -4,9 C -3,1 C 0,0 km/h
22.01.2016 21:00 -2,1 C 87 % 1024,9 hPa 0,0 l/m 0,0 km/h O-SO -4,0 C -2,1 C 0,0 km/h
22.01.2016 22:00 -1,1 C 88 % 1025,3 hPa 0,0 l/m 0,0 km/h NO -2,8 C -1,1 C 0,0 km/h
22.01.2016 23:00 0,2 C 89 % 1025,6 hPa 0,0 l/m 0,0 km/h S -1,4 C 0,2 C 0,0 km/h
23.01.2016 00:00 4,1 C 88 % 1025,3 hPa 1,2 l/m 22,7 km/h S 2,3 C -5,4 C 12,6 km/h
23.01.2016 01:00 4,4 C 88 % 1025,8 hPa 2,5 l/m 18,8 km/h S-SW 2,6 C -3,4 C 10,4 km/h
23.01.2016 02:00 4,8 C 88 % 1025,8 hPa 1,2 l/m 18,1 km/h SW 3,0 C -2,6 C 10,1 km/h
23.01.2016 03:00 5,3 C 86 % 1026,6 hPa 0,0 l/m 8,4 km/h W 3,2 C 3,6 C 4,7 km/h
23.01.2016 04:00 4,7 C 87 % 1027,5 hPa 0,0 l/m 7,1 km/h W-SW 2,7 C 4,1 C 4,0 km/h
23.01.2016 05:00 4,7 C 88 % 1028,0 hPa 0,0 l/m 0,0 km/h N-NO 2,9 C 4,7 C 0,0 km/h
23.01.2016 06:00 3,5 C 88 % 1029,7 hPa 0,0 l/m 0,0 km/h O-NO 1,7 C 3,5 C 0,0 km/h
23.01.2016 07:00 2,5 C 88 % 1030,3 hPa 0,0 l/m 0,0 km/h O-NO 0,7 C 2,5 C 0,0 km/h
23.01.2016 08:00 2,3 C 89 % 1031,1 hPa 0,0 l/m 0,0 km/h SO 0,7 C 2,3 C 0,0 km/h
23.01.2016 09:00 3,1 C 89 % 1031,6 hPa 0,0 l/m 0,0 km/h O-NO 1,5 C 3,1 C 0,0 km/h
23.01.2016 10:00 4,9 C 88 % 1033,2 hPa 0,0 l/m 0,0 km/h O-SO 3,1 C 4,9 C 0,0 km/h
23.01.2016 11:00 6,3 C 87 % 1033,1 hPa 0,0 l/m 0,0 km/h SO 4,3 C 6,3 C 0,0 km/h
23.01.2016 12:00 7,1 C 87 % 1033,0 hPa 0,0 l/m 0,0 km/h SO 5,1 C 7,1 C 0,0 km/h
23.01.2016 13:00 8,3 C 83 % 1032,8 hPa 0,0 l/m 0,0 km/h SO 5,6 C 8,3 C 0,0 km/h
23.01.2016 14:00 7,9 C 83 % 1033,0 hPa 0,0 l/m 0,0 km/h O-SO 5,2 C 7,9 C 0,0 km/h
23.01.2016 15:00 6,6 C 85 % 1033,1 hPa 0,0 l/m 0,0 km/h O-SO 4,3 C 6,6 C 0,0 km/h
23.01.2016 16:00 6,4 C 85 % 1033,3 hPa 0,0 l/m 0,0 km/h O-SO 4,1 C 6,4 C 0,0 km/h
23.01.2016 17:00 3,0 C 88 % 1034,0 hPa 0,0 l/m 0,0 km/h O-NO 1,2 C 3,0 C 0,0 km/h
23.01.2016 18:00 2,1 C 88 % 1034,0 hPa 0,0 l/m 1,3 km/h SO 0,3 C 2,1 C 0,7 km/h
23.01.2016 19:00 1,2 C 89 % 1034,0 hPa 0,0 l/m 0,0 km/h O-NO -0,4 C 1,2 C 0,0 km/h
23.01.2016 20:00 0,9 C 89 % 1033,7 hPa 0,0 l/m 0,0 km/h O -0,7 C 0,9 C 0,0 km/h
23.01.2016 21:00 0,1 C 89 % 1033,9 hPa 0,0 l/m 0,0 km/h O-SO -1,5 C 0,1 C 0,0 km/h
23.01.2016 22:00 0,1 C 88 % 1033,6 hPa 0,0 l/m 0,0 km/h SO -1,6 C 0,1 C 0,0 km/h
23.01.2016 23:00 -0,7 C 88 % 1033,5 hPa 0,0 l/m 0,0 km/h SO -2,4 C -0,7 C 0,0 km/h
24.01.2016 00:00 -0,6 C 87 % 1033,5 hPa 0,0 l/m 0,0 km/h SO -2,5 C -0,6 C 0,0 km/h
24.01.2016 01:00 -0,4 C 87 % 1032,9 hPa 0,0 l/m 8,4 km/h SO -2,3 C -2,5 C 4,7 km/h
24.01.2016 02:00 -0,8 C 86 % 1032,7 hPa 0,0 l/m 0,0 km/h O-NO -2,8 C -0,8 C 0,0 km/h
24.01.2016 03:00 -0,7 C 86 % 1032,2 hPa 0,0 l/m 0,0 km/h O -2,7 C -0,7 C 0,0 km/h
24.01.2016 04:00 -1,3 C 86 % 1031,8 hPa 0,0 l/m 0,0 km/h SO -3,3 C -1,3 C 0,0 km/h
24.01.2016 05:00 -0,5 C 86 % 1031,8 hPa 0,0 l/m 14,9 km/h S-SO -2,5 C -7,5 C 8,3 km/h
24.01.2016 06:00 -0,9 C 85 % 1031,9 hPa 0,0 l/m 0,0 km/h O-SO -3,1 C -0,9 C 0,0 km/h
24.01.2016 07:00 -0,1 C 85 % 1031,7 hPa 0,0 l/m 0,0 km/h SO -2,3 C -0,1 C 0,0 km/h
24.01.2016 08:00 0,0 C 84 % 1032,1 hPa 0,0 l/m 0,0 km/h N-NO -2,4 C 0,0 C 0,0 km/h
24.01.2016 09:00 1,3 C 84 % 1032,0 hPa 0,0 l/m 0,0 km/h W-NW -1,1 C 1,3 C 0,0 km/h
24.01.2016 10:00 2,0 C 83 % 1032,8 hPa 0,0 l/m 12,3 km/h O-NO -0,6 C -2,9 C 6,8 km/h
24.01.2016 11:00 4,1 C 85 % 1031,9 hPa 0,0 l/m 0,0 km/h SO 1,8 C 4,1 C 0,0 km/h
24.01.2016 12:00 6,4 C 88 % 1031,9 hPa 0,0 l/m 0,0 km/h O-SO 4,6 C 6,4 C 0,0 km/h
24.01.2016 13:00 10,0 C 80 % 1031,2 hPa 0,0 l/m 0,0 km/h SO 6,7 C 10,0 C 0,0 km/h
24.01.2016 14:00 9,4 C 76 % 1030,7 hPa 0,0 l/m 0,0 km/h SO 5,4 C 9,4 C 0,0 km/h
24.01.2016 15:00 9,2 C 76 % 1030,5 hPa 0,0 l/m 0,0 km/h SO 5,2 C 9,2 C 0,0 km/h
24.01.2016 16:00 7,2 C 80 % 1030,9 hPa 0,0 l/m 0,0 km/h SO 4,0 C 7,2 C 0,0 km/h
24.01.2016 17:00 5,5 C 84 % 1030,6 hPa 0,0 l/m 0,0 km/h SO 3,0 C 5,5 C 0,0 km/h
24.01.2016 18:00 4,4 C 86 % 1030,8 hPa 0,0 l/m 0,0 km/h SO 2,3 C 4,4 C 0,0 km/h
24.01.2016 19:00 4,2 C 86 % 1030,7 hPa 0,0 l/m 9,7 km/h SO 2,1 C 1,4 C 5,4 km/h
24.01.2016 20:00 4,3 C 85 % 1030,5 hPa 0,0 l/m 7,1 km/h SO 2,0 C 3,7 C 4,0 km/h
24.01.2016 21:00 4,5 C 84 % 1030,2 hPa 0,0 l/m 0,0 km/h SO 2,0 C 4,5 C 0,0 km/h
24.01.2016 22:00 4,5 C 84 % 1030,0 hPa 0,0 l/m 12,3 km/h SO 2,0 C -0,0 C 6,8 km/h
24.01.2016 23:00 3,8 C 84 % 1029,8 hPa 0,0 l/m 0,0 km/h SO 1,4 C 3,8 C 0,0 km/h
Min-Datum _ 18.01.16 22.01.16 19.01.16 - 18.01.16 - 18.01.16 18.01.16 18.01.16
_ Min-Zeit 04:42 15:42 02:42 - 00:42 - 04:42 04:42 00:42
Minimum _ -11,6 C 59 % 1011,6 hPa - 0,0 km/h - -13,2 C -11,6 C 0,0 km/h
Max-Datum _ 24.01.16 18.01.16 23.01.16 23.01.16 23.01.16 - 24.01.16 24.01.16 23.01.16
_ Max-Zeit 13:42 02:42 17:42 01:42 00:42 - 13:42 13:42 00:42
Maximum _ 10,0 C 89 % 1034,0 hPa 2,5 l/m 22,7 km/h
S
- 6,7 C 10,0 C 12,6 km/h
S
Durchschnitt _ -1,7 C 85 % 1022,4 hPa #6,6 l/m 0,8 km/h SO -3,8 C -2,0 C 0,5 km/h
www.sexauwetter.de